createdAt,value
2018-12-01T00:01:20.141Z,1.67
2018-12-01T00:03:48.249Z,1.70
2018-12-01T00:06:16.384Z,1.87
2018-12-01T00:08:44.501Z,1.70
2018-12-01T00:11:12.663Z,1.93
2018-12-01T00:13:40.832Z,1.93
2018-12-01T00:16:08.971Z,1.90
2018-12-01T00:18:37.128Z,1.80
2018-12-01T00:21:05.720Z,1.50
2018-12-01T00:23:34.153Z,2.10
2018-12-01T00:26:02.250Z,1.70
2018-12-01T00:28:30.470Z,1.87
2018-12-01T00:30:58.576Z,1.87
2018-12-01T00:33:26.648Z,1.70
2018-12-01T00:35:54.855Z,1.70
2018-12-01T00:38:22.969Z,2.03
2018-12-01T00:40:51.070Z,2.10
2018-12-01T00:43:19.280Z,1.90
2018-12-01T00:45:47.376Z,2.10
2018-12-01T00:48:15.716Z,1.80
2018-12-01T00:50:43.789Z,2.10
2018-12-01T00:53:11.950Z,1.70
2018-12-01T00:55:40.209Z,1.63
2018-12-01T00:58:08.309Z,1.20
2018-12-01T01:00:36.914Z,1.70
2018-12-01T01:03:05.020Z,1.57
2018-12-01T01:05:33.180Z,1.90
2018-12-01T01:08:01.378Z,1.33
2018-12-01T01:10:34.679Z,1.53
2018-12-01T01:13:01.878Z,1.90
2018-12-01T01:15:30.001Z,1.60
2018-12-01T01:17:58.188Z,1.77
2018-12-01T01:20:26.282Z,1.87
2018-12-01T01:22:54.429Z,1.77
2018-12-01T01:25:22.536Z,2.07
2018-12-01T01:27:50.685Z,2.27
2018-12-01T01:30:19.543Z,1.57
2018-12-01T01:32:47.796Z,1.83
2018-12-01T01:35:15.920Z,1.97
2018-12-01T01:37:44.068Z,1.77
2018-12-01T01:40:14.089Z,2.00
2018-12-01T01:42:42.177Z,1.73
2018-12-01T01:45:12.596Z,2.10
2018-12-01T01:47:40.865Z,1.83
2018-12-01T01:50:11.189Z,1.63
2018-12-01T01:52:39.314Z,2.23
2018-12-01T01:55:08.848Z,1.83
2018-12-01T01:57:36.940Z,1.60
2018-12-01T02:00:08.965Z,1.93
2018-12-01T02:02:37.076Z,2.23
2018-12-01T02:05:05.288Z,2.03
2018-12-01T02:07:33.368Z,2.07
2018-12-01T02:10:01.433Z,2.33
2018-12-01T02:12:29.520Z,2.57
2018-12-01T02:14:57.617Z,2.13
2018-12-01T02:17:25.678Z,1.83
2018-12-01T02:19:53.801Z,2.30
2018-12-01T02:22:21.916Z,2.27
2018-12-01T02:24:50.041Z,2.07
2018-12-01T02:27:18.196Z,2.00
2018-12-01T02:29:46.328Z,2.20
2018-12-01T02:32:14.484Z,2.33
2018-12-01T02:34:42.552Z,2.43
2018-12-01T02:37:10.669Z,1.90
2018-12-01T02:39:38.720Z,1.60
2018-12-01T02:42:06.832Z,2.37
2018-12-01T02:44:58.248Z,2.23
2018-12-01T02:47:26.492Z,2.10
2018-12-01T02:49:55.132Z,2.03
2018-12-01T02:52:23.278Z,2.70
2018-12-01T02:54:51.668Z,2.07
2018-12-01T02:57:19.756Z,2.40
2018-12-01T02:59:47.913Z,2.23
2018-12-01T03:02:16.025Z,2.43
2018-12-01T03:04:44.120Z,1.93
2018-12-01T03:07:12.480Z,2.33
2018-12-01T03:09:40.564Z,2.33
2018-12-01T03:12:08.717Z,2.70
2018-12-01T03:14:36.799Z,2.20
2018-12-01T03:17:04.940Z,2.27
2018-12-01T03:19:33.257Z,2.03
2018-12-01T03:22:01.380Z,2.80
2018-12-01T03:24:29.454Z,2.10
2018-12-01T03:26:57.596Z,2.40
2018-12-01T03:29:25.749Z,2.70
2018-12-01T03:31:54.124Z,2.27
2018-12-01T03:34:22.277Z,1.83
2018-12-01T03:36:50.435Z,2.57
2018-12-01T03:39:18.573Z,2.57
2018-12-01T03:41:46.808Z,2.47
2018-12-01T03:44:15.059Z,2.40
2018-12-01T03:46:43.165Z,2.50
2018-12-01T03:49:11.232Z,1.77
2018-12-01T03:51:39.315Z,2.77
2018-12-01T03:54:07.478Z,2.27
2018-12-01T03:56:35.619Z,2.30
2018-12-01T03:59:03.689Z,2.60
2018-12-01T04:01:31.803Z,2.37
2018-12-01T04:03:59.884Z,2.30
2018-12-01T04:06:28.008Z,2.20
2018-12-01T04:08:56.356Z,2.07
2018-12-01T04:11:24.441Z,2.10
2018-12-01T04:13:52.572Z,2.33
2018-12-01T04:16:20.686Z,2.37
2018-12-01T04:18:48.745Z,2.40
2018-12-01T04:21:17.269Z,2.03
2018-12-01T04:23:45.428Z,2.17
2018-12-01T04:26:13.504Z,2.30
2018-12-01T04:28:41.611Z,1.90
2018-12-01T04:31:09.700Z,2.00
2018-12-01T04:33:38.081Z,2.37
2018-12-01T04:36:06.213Z,1.80
2018-12-01T04:38:34.299Z,2.17
2018-12-01T04:41:02.467Z,2.13
2018-12-01T04:43:34.201Z,2.07
2018-12-01T04:46:02.528Z,2.23
2018-12-01T04:48:30.665Z,2.07
2018-12-01T04:50:58.746Z,2.03
2018-12-01T04:53:26.832Z,1.73
2018-12-01T04:55:54.930Z,2.20
2018-12-01T04:58:23.277Z,2.10
2018-12-01T05:00:51.372Z,1.97
2018-12-01T05:03:19.422Z,2.10
2018-12-01T05:05:47.496Z,2.30
2018-12-01T05:08:15.597Z,2.07
2018-12-01T05:10:43.924Z,2.27
2018-12-01T05:13:12.212Z,1.83
2018-12-01T05:15:40.303Z,1.83
2018-12-01T05:18:08.403Z,2.17
2018-12-01T05:20:36.556Z,1.70
2018-12-01T05:23:04.785Z,2.60
2018-12-01T05:25:32.856Z,2.10
2018-12-01T05:28:00.961Z,1.80
2018-12-01T05:30:29.064Z,1.80
2018-12-01T05:32:57.168Z,2.13
2018-12-01T05:35:25.300Z,2.10
2018-12-01T05:37:53.360Z,2.43
2018-12-01T05:40:21.710Z,1.37
2018-12-01T05:42:49.793Z,2.17
2018-12-01T05:45:19.779Z,2.47
2018-12-01T05:47:47.951Z,2.17
2018-12-01T05:50:22.141Z,2.40
2018-12-01T05:52:51.133Z,1.83
2018-12-01T05:55:19.300Z,1.70
2018-12-01T05:57:47.496Z,2.07
2018-12-01T06:00:16.292Z,2.00
2018-12-01T06:02:44.372Z,2.07
2018-12-01T06:05:12.494Z,2.03
2018-12-01T06:07:41.518Z,1.70
2018-12-01T06:10:12.781Z,2.20
2018-12-01T06:12:40.976Z,1.70
2018-12-01T06:15:11.607Z,1.70
2018-12-01T06:17:39.741Z,1.80
2018-12-01T06:20:10.208Z,1.77
2018-12-01T06:22:38.372Z,1.77
2018-12-01T06:25:08.493Z,1.83
2018-12-01T06:27:36.582Z,1.77
2018-12-01T06:30:07.490Z,1.80
2018-12-01T06:32:35.661Z,1.63
2018-12-01T06:35:03.806Z,1.67
2018-12-01T06:37:31.896Z,1.70
2018-12-01T06:40:00.020Z,1.50
2018-12-01T06:42:28.156Z,2.20
2018-12-01T06:44:56.244Z,1.70
2018-12-01T06:47:24.398Z,1.77
2018-12-01T06:49:52.516Z,1.57
2018-12-01T06:52:20.703Z,1.30
2018-12-01T06:54:48.780Z,2.27
2018-12-01T06:57:16.884Z,1.73
2018-12-01T06:59:45.750Z,1.57
2018-12-01T07:02:13.857Z,1.50
2018-12-01T07:04:42.049Z,1.70
2018-12-01T07:07:10.277Z,1.90
2018-12-01T07:09:38.400Z,1.67
2018-12-01T07:12:07.373Z,2.10
2018-12-01T07:14:35.472Z,1.80
2018-12-01T07:17:03.696Z,1.60
2018-12-01T07:19:31.791Z,1.67
2018-12-01T07:21:59.973Z,1.87
2018-12-01T07:24:28.076Z,1.90
2018-12-01T07:26:56.281Z,1.80
2018-12-01T07:29:24.341Z,1.50
2018-12-01T07:31:52.492Z,1.10
2018-12-01T07:34:20.616Z,2.03
2018-12-01T07:36:48.768Z,1.40
2018-12-01T07:39:16.978Z,2.00
2018-12-01T07:41:45.090Z,1.60
2018-12-01T07:44:13.220Z,1.80
2018-12-01T07:46:41.294Z,1.50
2018-12-01T07:49:09.384Z,1.50
2018-12-01T07:51:37.462Z,2.03
2018-12-01T07:54:05.524Z,1.30
2018-12-01T07:56:33.672Z,1.70
2018-12-01T07:59:01.817Z,1.70
2018-12-01T08:01:30.019Z,1.77
2018-12-01T08:03:58.100Z,1.93
2018-12-01T08:06:26.160Z,1.97
2018-12-01T08:08:54.240Z,1.53
2018-12-01T08:11:22.488Z,1.50
2018-12-01T08:13:50.596Z,1.70
2018-12-01T08:16:18.733Z,2.10
2018-12-01T08:18:46.801Z,1.67
2018-12-01T08:21:14.931Z,1.63
2018-12-01T08:23:43.032Z,2.17
2018-12-01T08:26:11.193Z,2.33
2018-12-01T08:28:39.365Z,2.20
2018-12-01T08:31:07.424Z,2.07
2018-12-01T08:33:35.625Z,1.80
2018-12-01T08:36:03.751Z,2.20
2018-12-01T08:38:32.516Z,2.07
2018-12-01T08:41:00.665Z,1.97
2018-12-01T08:43:28.770Z,1.83
2018-12-01T08:45:56.909Z,2.00
2018-12-01T08:48:25.024Z,1.93
2018-12-01T08:50:57.292Z,2.13
2018-12-01T08:53:25.433Z,2.67
2018-12-01T08:55:53.558Z,1.90
2018-12-01T08:58:21.633Z,1.83
2018-12-01T09:00:49.730Z,2.43
2018-12-01T09:03:22.386Z,2.30
2018-12-01T09:05:50.839Z,2.23
2018-12-01T09:08:18.940Z,1.90
2018-12-01T09:10:47.025Z,2.33
2018-12-01T09:13:15.164Z,2.07
2018-12-01T09:15:43.242Z,2.10
2018-12-01T09:18:11.467Z,2.87
2018-12-01T09:20:39.754Z,2.53
2018-12-01T09:23:07.973Z,2.10
2018-12-01T09:25:36.205Z,2.53
2018-12-01T09:28:04.982Z,2.40
2018-12-01T09:30:34.460Z,2.13
2018-12-01T09:33:03.020Z,2.17
2018-12-01T09:35:31.506Z,1.77
2018-12-01T09:37:59.941Z,2.97
2018-12-01T09:40:29.297Z,1.77
2018-12-01T09:42:58.819Z,1.63
2018-12-01T09:45:27.420Z,1.80
2018-12-01T09:47:58.098Z,1.97
2018-12-01T09:50:27.144Z,1.40
2018-12-01T09:52:57.102Z,1.83
2018-12-01T09:55:26.557Z,1.67
2018-12-01T09:57:54.696Z,1.73
2018-12-01T10:00:26.971Z,1.87
2018-12-01T10:02:55.224Z,1.80
2018-12-01T10:05:23.359Z,1.73
2018-12-01T10:07:51.449Z,1.50
2018-12-01T10:10:20.612Z,1.77
2018-12-01T10:12:51.625Z,1.50
2018-12-01T10:15:20.858Z,1.60
2018-12-01T10:17:48.924Z,2.70
2018-12-01T10:20:19.260Z,2.63
2018-12-01T10:22:47.332Z,1.57
2018-12-01T10:25:16.557Z,2.00
2018-12-01T10:27:44.888Z,1.97
2018-12-01T10:30:20.484Z,1.80
2018-12-01T10:32:49.254Z,1.90
2018-12-01T10:35:18.458Z,1.83
2018-12-01T10:37:48.128Z,1.77
2018-12-01T10:40:16.245Z,1.33
2018-12-01T10:42:44.316Z,1.53
2018-12-01T10:45:16.588Z,1.80
2018-12-01T10:47:45.116Z,1.70
2018-12-01T10:50:15.140Z,1.63
2018-12-01T10:52:43.290Z,1.40
2018-12-01T10:55:16.626Z,1.60
2018-12-01T10:57:44.686Z,1.43
2018-12-01T11:00:18.402Z,1.40
2018-12-01T11:02:55.615Z,1.80
2018-12-01T11:05:19.908Z,1.60
2018-12-01T11:07:48.224Z,1.40
2018-12-01T11:10:16.547Z,1.47
2018-12-01T11:12:44.424Z,1.37
2018-12-01T11:15:12.540Z,1.60
2018-12-01T11:17:40.638Z,1.30
2018-12-01T11:20:10.528Z,1.60
2018-12-01T11:22:39.234Z,1.37
2018-12-01T11:25:09.642Z,1.87
2018-12-01T11:27:37.952Z,1.50
2018-12-01T11:30:13.626Z,1.37
2018-12-01T11:32:42.229Z,1.23
2018-12-01T11:35:10.448Z,1.30
2018-12-01T11:37:38.518Z,1.30
2018-12-01T11:40:10.049Z,1.53
2018-12-01T11:42:38.504Z,2.13
2018-12-01T11:45:09.584Z,2.53
2018-12-01T11:47:38.896Z,2.03
2018-12-01T11:50:11.158Z,1.87
2018-12-01T11:52:39.281Z,1.80
2018-12-01T11:55:09.036Z,2.33
2018-12-01T11:57:37.108Z,1.83
2018-12-01T12:00:08.248Z,1.80
2018-12-01T12:02:36.310Z,1.43
2018-12-01T12:05:04.566Z,2.00
2018-12-01T12:07:44.092Z,1.80
2018-12-01T12:10:12.209Z,1.40
2018-12-01T12:12:40.353Z,1.40
2018-12-01T12:15:09.652Z,1.20
2018-12-01T12:17:37.796Z,1.07
2018-12-01T12:20:08.049Z,1.70
2018-12-01T12:22:36.413Z,1.60
2018-12-01T12:25:06.444Z,1.77
2018-12-01T12:27:34.540Z,1.13
2018-12-01T12:30:02.760Z,1.63
2018-12-01T12:32:30.917Z,1.10
2018-12-01T12:34:59.256Z,1.57
2018-12-01T12:37:27.340Z,1.47
2018-12-01T12:39:55.397Z,1.70
2018-12-01T12:42:23.534Z,1.30
2018-12-01T12:44:51.831Z,1.20
2018-12-01T12:47:19.996Z,1.50
2018-12-01T12:49:48.236Z,1.30
2018-12-01T12:52:16.349Z,1.50
2018-12-01T12:54:44.488Z,1.37
2018-12-01T12:57:12.541Z,1.53
2018-12-01T12:59:40.637Z,1.60
2018-12-01T13:02:08.695Z,1.50
2018-12-01T13:04:36.768Z,1.30
2018-12-01T13:07:05.025Z,1.33
2018-12-01T13:09:33.120Z,1.87
2018-12-01T13:12:01.217Z,1.50
2018-12-01T13:14:29.301Z,1.53
2018-12-01T13:16:57.364Z,1.17
2018-12-01T13:19:25.507Z,1.47
2018-12-01T13:21:53.763Z,1.83
2018-12-01T13:24:22.163Z,1.63
2018-12-01T13:26:50.236Z,1.53
2018-12-01T13:29:18.488Z,1.43
2018-12-01T13:31:46.584Z,1.30
2018-12-01T13:34:14.682Z,1.50
2018-12-01T13:36:42.801Z,1.70
2018-12-01T13:39:10.909Z,1.50
2018-12-01T13:41:38.987Z,1.50
2018-12-01T13:44:07.089Z,1.30
2018-12-01T13:46:35.428Z,1.57
2018-12-01T13:49:03.514Z,1.57
2018-12-01T13:51:31.688Z,1.67
2018-12-01T13:53:59.779Z,1.27
2018-12-01T13:56:27.857Z,1.47
2018-12-01T13:58:55.928Z,1.33
2018-12-01T14:01:24.281Z,1.50
2018-12-01T14:03:52.364Z,1.50
2018-12-01T14:06:20.525Z,0.83
2018-12-01T14:08:48.588Z,1.43
2018-12-01T14:11:16.648Z,1.57
2018-12-01T14:13:44.710Z,1.27
2018-12-01T14:16:13.060Z,1.37
2018-12-01T14:18:41.496Z,1.30
2018-12-01T14:21:09.580Z,1.40
2018-12-01T14:23:37.681Z,1.30
2018-12-01T14:26:05.837Z,1.63
2018-12-01T14:28:33.905Z,1.37
2018-12-01T14:31:02.261Z,1.10
2018-12-01T14:33:30.330Z,1.70
2018-12-01T14:35:58.404Z,1.40
2018-12-01T14:38:26.468Z,1.63
2018-12-01T14:40:54.551Z,1.27
2018-12-01T14:43:22.621Z,1.30
2018-12-01T14:45:50.720Z,1.20
2018-12-01T14:48:18.812Z,1.43
2018-12-01T14:50:48.715Z,1.30
2018-12-01T14:53:16.074Z,1.57
2018-12-01T14:55:44.684Z,1.20
2018-12-01T14:58:12.783Z,1.30
2018-12-01T15:00:40.885Z,1.20
2018-12-01T15:03:09.089Z,1.37
2018-12-01T15:05:37.918Z,1.17
2018-12-01T15:08:06.900Z,1.10
2018-12-01T15:10:35.176Z,1.20
2018-12-01T15:13:03.262Z,1.33
2018-12-01T15:15:31.364Z,1.57
2018-12-01T15:17:59.476Z,1.70
2018-12-01T15:20:27.608Z,1.50
2018-12-01T15:22:56.872Z,1.70
2018-12-01T15:25:27.016Z,1.77
2018-12-01T15:27:55.291Z,1.57
2018-12-01T15:30:27.363Z,1.87
2018-12-01T15:32:56.902Z,1.80
2018-12-01T15:35:25.001Z,1.60
2018-12-01T15:37:53.135Z,1.60
2018-12-01T15:40:21.252Z,1.50
2018-12-01T15:42:49.316Z,1.73
2018-12-01T15:45:19.512Z,1.53
2018-12-01T15:47:47.584Z,1.60
2018-12-01T15:50:17.475Z,1.50
2018-12-01T15:52:50.166Z,2.10
2018-12-01T15:55:18.560Z,1.87
2018-12-01T15:57:46.641Z,1.30
2018-12-01T16:00:24.474Z,1.63
2018-12-01T16:02:52.550Z,1.33
2018-12-01T16:05:21.582Z,1.47
2018-12-01T16:07:51.078Z,1.73
2018-12-01T16:10:20.291Z,1.70
2018-12-01T16:12:49.824Z,1.60
2018-12-01T16:15:19.888Z,1.63
2018-12-01T16:17:48.065Z,1.73
2018-12-01T16:20:16.215Z,1.40
2018-12-01T16:22:44.380Z,1.70
2018-12-01T16:25:14.568Z,1.73
2018-12-01T16:27:43.633Z,1.33
2018-12-01T16:30:17.238Z,1.20
2018-12-01T16:32:45.852Z,1.57
2018-12-01T16:35:14.006Z,1.67
2018-12-01T16:37:42.084Z,1.13
2018-12-01T16:40:19.818Z,1.27
2018-12-01T16:42:47.909Z,1.10
2018-12-01T16:45:16.185Z,1.63
2018-12-01T16:47:44.306Z,1.10
2018-12-01T16:50:13.596Z,1.40
2018-12-01T16:52:42.446Z,1.50
2018-12-01T16:55:12.805Z,1.00
2018-12-01T16:57:40.904Z,1.30
2018-12-01T17:00:20.602Z,1.20
2018-12-01T17:02:51.001Z,0.97
2018-12-01T17:05:19.945Z,1.30
2018-12-01T17:07:48.401Z,1.20
2018-12-01T17:10:17.777Z,1.37
2018-12-01T17:12:46.773Z,1.37
2018-12-01T17:15:16.149Z,1.10
2018-12-01T17:17:44.288Z,1.20
2018-12-01T17:20:13.256Z,2.17
2018-12-01T17:22:42.460Z,4.47
2018-12-01T17:25:13.612Z,6.13
2018-12-01T17:27:41.770Z,6.97
2018-12-01T17:30:12.501Z,5.93
2018-12-01T17:32:40.582Z,5.40
2018-12-01T17:35:14.275Z,5.60
2018-12-01T17:37:42.561Z,5.30
2018-12-01T17:40:22.112Z,4.80
2018-12-01T17:42:51.784Z,4.77
2018-12-01T17:45:19.921Z,5.03
2018-12-01T17:47:48.016Z,5.53
2018-12-01T17:50:16.844Z,4.90
2018-12-01T17:52:48.908Z,5.40
2018-12-01T17:55:17.285Z,4.80
2018-12-01T17:57:46.096Z,4.10
2018-12-01T18:00:16.106Z,4.40
2018-12-01T18:02:43.977Z,4.23
2018-12-01T18:05:13.645Z,4.00
2018-12-01T18:07:41.741Z,3.70
2018-12-01T18:10:11.420Z,4.10
2018-12-01T18:12:39.605Z,3.20
2018-12-01T18:15:09.725Z,3.77
2018-12-01T18:17:38.277Z,3.17
2018-12-01T18:20:12.957Z,3.77
2018-12-01T18:22:41.332Z,3.13
2018-12-01T18:25:09.780Z,2.80
2018-12-01T18:27:37.933Z,2.80
2018-12-01T18:30:13.057Z,2.80
2018-12-01T18:32:41.261Z,2.47
2018-12-01T18:35:09.440Z,2.80
2018-12-01T18:37:37.529Z,2.87
2018-12-01T18:40:12.145Z,2.77
2018-12-01T18:42:40.280Z,2.33
2018-12-01T18:45:11.002Z,2.40
2018-12-01T18:47:39.155Z,2.60
2018-12-01T18:50:10.795Z,2.27
2018-12-01T18:52:39.132Z,2.27
2018-12-01T18:55:10.109Z,2.00
2018-12-01T18:57:38.281Z,2.03
2018-12-01T19:00:11.867Z,2.10
2018-12-01T19:02:40.039Z,2.63
2018-12-01T19:05:08.249Z,2.17
2018-12-01T19:07:36.382Z,2.30
2018-12-01T19:10:08.849Z,2.07
2018-12-01T19:12:36.920Z,1.83
2018-12-01T19:15:06.107Z,2.03
2018-12-01T19:17:34.208Z,2.20
2018-12-01T19:20:02.340Z,1.90
2018-12-01T19:22:30.491Z,1.63
2018-12-01T19:24:58.638Z,2.27
2018-12-01T19:27:26.742Z,2.00
2018-12-01T19:29:54.901Z,1.63
2018-12-01T19:32:23.046Z,2.00
2018-12-01T19:34:51.180Z,1.60
2018-12-01T19:37:19.393Z,1.80
2018-12-01T19:39:47.544Z,1.73
2018-12-01T19:42:15.934Z,1.23
2018-12-01T19:44:44.029Z,1.70
2018-12-01T19:47:12.205Z,1.13
2018-12-01T19:49:40.396Z,1.70
2018-12-01T19:52:08.828Z,1.40
2018-12-01T19:54:36.977Z,1.33
2018-12-01T19:57:05.449Z,1.30
2018-12-01T19:59:34.119Z,1.90
2018-12-01T20:02:02.254Z,1.50
2018-12-01T20:04:30.351Z,1.50
2018-12-01T20:06:58.493Z,1.50
2018-12-01T20:09:26.676Z,1.30
2018-12-01T20:11:54.804Z,1.57
2018-12-01T20:14:22.908Z,1.23
2018-12-01T20:16:53.449Z,1.43
2018-12-01T20:19:21.619Z,1.27
2018-12-01T20:21:49.736Z,1.13
2018-12-01T20:24:17.897Z,1.27
2018-12-01T20:26:45.988Z,1.00
2018-12-01T20:29:14.080Z,0.90
2018-12-01T20:31:42.213Z,1.07
2018-12-01T20:34:10.436Z,1.20
2018-12-01T20:36:46.239Z,1.23
2018-12-01T20:39:15.869Z,1.13
2018-12-01T20:41:43.944Z,1.00
2018-12-01T20:44:12.008Z,1.23
2018-12-01T20:46:40.131Z,1.23
2018-12-01T20:49:08.318Z,1.23
2018-12-01T20:51:36.432Z,0.80
2018-12-01T20:54:06.216Z,1.10
2018-12-01T20:56:35.881Z,1.10
2018-12-01T20:59:04.175Z,1.20
2018-12-01T21:01:32.233Z,0.90
2018-12-01T21:04:00.344Z,1.20
2018-12-01T21:06:28.416Z,1.00
2018-12-01T21:08:56.521Z,1.10
2018-12-01T21:11:24.651Z,1.07
2018-12-01T21:13:52.764Z,1.10
2018-12-01T21:16:21.062Z,1.20
2018-12-01T21:18:49.108Z,1.13
2018-12-01T21:21:17.148Z,1.13
2018-12-01T21:23:45.312Z,1.00
2018-12-01T21:26:13.445Z,0.97
2018-12-01T21:28:41.524Z,0.97
2018-12-01T21:31:10.553Z,0.90
2018-12-01T21:33:38.632Z,0.80
2018-12-01T21:36:07.472Z,0.80
2018-12-01T21:38:35.861Z,0.90
2018-12-01T21:41:04.081Z,0.90
2018-12-01T21:43:32.324Z,0.80
2018-12-01T21:46:00.626Z,1.00
2018-12-01T21:48:28.737Z,0.83
2018-12-01T21:50:56.888Z,0.63
2018-12-01T21:53:25.905Z,0.90
2018-12-01T21:55:54.015Z,0.60
2018-12-01T21:58:22.296Z,0.70
2018-12-01T22:00:53.439Z,0.80
2018-12-01T22:03:21.554Z,0.80
2018-12-01T22:05:59.024Z,0.80
2018-12-01T22:08:27.324Z,0.83
2018-12-01T22:10:56.651Z,0.70
2018-12-01T22:13:25.371Z,0.80
2018-12-01T22:15:53.515Z,0.70
2018-12-01T22:18:22.431Z,0.70
2018-12-01T22:20:50.595Z,0.70
2018-12-01T22:23:18.677Z,0.80
2018-12-01T22:25:46.995Z,0.70
2018-12-01T22:28:15.258Z,0.63
2018-12-01T22:30:45.216Z,0.60
2018-12-01T22:33:15.058Z,0.50
2018-12-01T22:35:44.769Z,0.77
2018-12-01T22:38:12.824Z,0.80
2018-12-01T22:40:41.969Z,0.63
2018-12-01T22:43:10.134Z,0.60
2018-12-01T22:45:38.224Z,0.80
2018-12-01T22:48:16.078Z,0.63
2018-12-01T22:50:45.786Z,0.70
2018-12-01T22:53:14.352Z,0.73
2018-12-01T22:55:43.176Z,0.37
2018-12-01T22:58:13.261Z,0.80
2018-12-01T23:00:48.890Z,0.90
2018-12-01T23:03:17.020Z,2.10
2018-12-01T23:05:45.104Z,2.27
2018-12-01T23:08:14.318Z,2.33
2018-12-01T23:10:42.502Z,2.60
2018-12-01T23:13:10.710Z,2.10
2018-12-01T23:15:39.094Z,3.40
2018-12-01T23:18:08.827Z,2.93
2018-12-01T23:20:37.757Z,2.30
2018-12-01T23:23:06.364Z,2.40
2018-12-01T23:25:34.624Z,2.40
2018-12-01T23:28:02.951Z,2.73
2018-12-01T23:30:31.384Z,2.80
2018-12-01T23:33:00.897Z,2.00
2018-12-01T23:35:29.801Z,2.70
2018-12-01T23:37:58.244Z,2.80
2018-12-01T23:40:26.408Z,1.97
2018-12-01T23:42:54.637Z,2.30
2018-12-01T23:45:23.084Z,2.37
2018-12-01T23:47:51.288Z,2.67
2018-12-01T23:50:21.438Z,2.30
2018-12-01T23:52:50.977Z,2.40
2018-12-01T23:55:19.245Z,1.93
2018-12-01T23:57:47.426Z,1.50
